ADDS METAR Data

Data at: 0514 UTC 19 Jan 2018

METAR for:KBGR (Bangor Intl Arpt, ME, US)
Text:KBGR 190453Z 32004KT 10SM OVC029 M06/M09 A2987 RMK AO2 SLP118 T10611089 410171167
Temperature: -6.1°C ( 21°F)
Dewpoint: -8.9°C ( 16°F) [RH = 81%]
Pressure (altimeter):29.87 inches Hg (1011.6 mb) [Sea level pressure: 1011.8 mb]
Winds:from the NW (320 degrees) at 5 MPH (4 knots; 2.1 m/s)
Visibility:10 or more sm (16+ km)
Ceiling:2900 feet AGL
Clouds: overcast cloud deck at 2900 feet AGL